Charlestown, New Hampshire
Current Conditions -  °F | °C
As of 4:54 AM on Sunday 25 Jan 2015 (Local Time) from KVSF Reporting Station
Overcast Overcast  
Wind Chill: 29°   Ceiling: 3700
Heat Index: 33°   Visibility: 10mi
Dew Point: 23°   Wind: 5mph
Humidity: 66%   Direction: NA
Pressure: 29.38"   Gusts: NA
Location:  43.24°N, 72.42°W
Report Text: KVSF 250954Z AUTO VRB04KT 10SM BKN037 BKN044 OVC070 01/M05 A2938 RMK AO2 SLP955 T00061050 TSNO
Loading
Personal Weather Stations






























Interactive Weather Map New forecast layout! Learn more

10-Day Weather Forecast

Advertisements
Track Severe Weather on mobile